Terminal Aerodrome Forecast
Issued by NWS

Home | Current Version | Previous Version | Graphics & Text | Print | Product List | Glossary On
Versions: 1 2 3 4 5 6 7 8 9 10 11 12 13
000
FTUS43 KBIS 251138
TAFJMS
TAF
KJMS 251138Z 2512/2612 VRB03KT 3SM BR SCT002
      TEMPO 2512/2514 1/2SM FG VV001
     FM251400 11005KT P6SM SKC
     FM251800 12007KT P6SM FEW250
     FM260000 12005KT P6SM FEW250=

USA.gov is the U.S. government's official web portal to all federal, state and local government web resources and services.